Time;durP1;ratioP1;P1;durP2;ratioP2;P2;SDS_P1;SDS_P2;PMS_P1;PMS_P2;Temp;Humidity;BMP_temperature;BMP_pressure;BME280_temperature;BME280_humidity;BME280_pressure;Samples;Min_cycle;Max_cycle;Signal;HPM_P1;HPM_P2
2022/03/07 00:01:26;;;;;;;12.57;2.40;;;23.70;99.90;;;;;;5034660;28;20401;-65
2022/03/07 00:03:55;;;;;;;13.43;3.03;;;23.60;99.90;;;;;;5035163;28;20034;-66
2022/03/07 00:06:24;;;;;;;16.60;3.15;;;23.50;99.90;;;;;;5025358;28;20034;-66
2022/03/07 00:08:52;;;;;;;10.73;2.85;;;23.60;99.90;;;;;;5031925;28;20052;-66
2022/03/07 00:11:20;;;;;;;16.42;2.55;;;23.50;99.90;;;;;;5032744;28;20034;-66
2022/03/07 00:13:48;;;;;;;20.60;3.72;;;23.50;99.90;;;;;;5039031;28;20092;-66
2022/03/07 00:16:17;;;;;;;15.52;3.70;;;23.50;99.90;;;;;;5039009;28;20469;-66
2022/03/07 00:18:46;;;;;;;17.77;2.78;;;23.50;99.90;;;;;;5034621;28;20195;-66
2022/03/07 00:21:14;;;;;;;16.05;3.58;;;23.50;99.90;;;;;;5036401;28;20030;-66
2022/03/07 00:23:42;;;;;;;17.17;3.95;;;23.40;99.90;;;;;;5040165;28;20030;-66
2022/03/07 00:26:10;;;;;;;11.95;2.50;;;23.30;99.90;;;;;;5041566;28;20059;-65
2022/03/07 00:28:38;;;;;;;15.00;2.95;;;23.30;99.90;;;;;;5020428;28;20041;-66
2022/03/07 00:31:07;;;;;;;16.98;2.65;;;23.20;99.90;;;;;;5033988;28;20037;-65
2022/03/07 00:33:34;;;;;;;18.75;4.32;;;23.20;99.90;;;;;;5024610;28;20033;-65
2022/03/07 00:36:03;;;;;;;20.42;3.08;;;23.20;99.90;;;;;;5040178;28;20069;-66
2022/03/07 00:38:31;;;;;;;16.08;3.28;;;23.20;99.90;;;;;;5043948;28;20029;-66
2022/03/07 00:41:00;;;;;;;16.73;3.38;;;23.20;99.90;;;;;;5044320;28;20057;-66
2022/03/07 00:43:28;;;;;;;16.67;2.72;;;23.30;99.90;;;;;;5045411;28;20068;-66
2022/03/07 00:45:56;;;;;;;17.90;2.88;;;23.20;99.90;;;;;;5035148;28;20084;-66
2022/03/07 00:48:23;;;;;;;13.15;2.58;;;23.10;99.90;;;;;;5023536;28;20052;-65
2022/03/07 00:50:53;;;;;;;15.55;3.03;;;23.00;99.90;;;;;;5044437;28;20038;-65
2022/03/07 00:53:24;;;;;;;14.48;2.30;;;23.10;99.90;;;;;;5047317;28;20064;-66
2022/03/07 00:55:53;;;;;;;10.55;1.83;;;23.00;99.90;;;;;;5035442;28;20061;-66
2022/03/07 00:58:22;;;;;;;13.27;2.42;;;22.90;99.90;;;;;;5041043;28;20041;-66
2022/03/07 01:00:50;;;;;;;12.93;2.60;;;22.70;99.90;;;;;;5040081;28;20041;-66
2022/03/07 01:03:20;;;;;;;16.38;2.67;;;22.70;99.90;;;;;;5038877;28;20037;-65
2022/03/07 01:05:48;;;;;;;10.25;2.03;;;22.70;99.90;;;;;;5040467;28;20097;-65
2022/03/07 01:08:16;;;;;;;9.05;1.65;;;22.80;99.90;;;;;;5041448;28;20061;-63
2022/03/07 01:10:44;;;;;;;16.13;2.22;;;22.80;99.90;;;;;;5047110;28;20033;-63
2022/03/07 01:13:13;;;;;;;13.93;3.03;;;22.70;99.90;;;;;;5040810;28;20025;-63
2022/03/07 01:15:40;;;;;;;9.73;2.97;;;22.70;99.90;;;;;;5041902;28;20045;-63
2022/03/07 01:18:09;;;;;;;12.65;2.97;;;22.70;99.90;;;;;;5035937;28;20033;-63
2022/03/07 01:20:37;;;;;;;8.93;2.85;;;22.80;99.90;;;;;;5041754;28;20517;-63
2022/03/07 01:23:04;;;;;;;10.85;2.47;;;22.90;99.90;;;;;;5047038;28;20037;-64
2022/03/07 01:25:32;;;;;;;12.98;2.75;;;23.00;99.90;;;;;;5034616;28;20041;-64
2022/03/07 01:28:00;;;;;;;12.77;3.00;;;23.10;99.90;;;;;;5055159;28;20036;-64
2022/03/07 01:30:28;;;;;;;12.05;2.88;;;23.20;99.90;;;;;;5035779;28;20041;-64
2022/03/07 01:32:57;;;;;;;11.15;3.10;;;23.30;99.90;;;;;;5032331;28;20034;-65
2022/03/07 01:35:25;;;;;;;11.27;2.63;;;23.30;99.90;;;;;;5032609;28;20093;-64
2022/03/07 01:37:53;;;;;;;9.75;2.58;;;23.30;99.90;;;;;;5036571;28;20048;-65
2022/03/07 01:40:20;;;;;;;13.23;2.80;;;23.50;99.90;;;;;;5046653;28;20037;-65
2022/03/07 01:42:48;;;;;;;7.90;2.92;;;23.50;99.90;;;;;;5036250;28;20033;-65
2022/03/07 01:45:19;;;;;;;7.93;2.47;;;23.70;99.90;;;;;;5038941;28;20033;-65
2022/03/07 01:47:48;;;;;;;13.98;3.35;;;23.80;99.90;;;;;;5034122;28;20093;-65
2022/03/07 01:50:18;;;;;;;8.60;2.83;;;23.80;99.90;;;;;;5036043;28;20013;-65
2022/03/07 01:52:50;;;;;;;9.13;3.65;;;24.00;99.90;;;;;;5050356;28;20021;-65
2022/03/07 01:55:18;;;;;;;13.25;2.80;;;24.20;99.90;;;;;;5051832;28;20034;-65
2022/03/07 01:57:46;;;;;;;12.98;2.80;;;24.30;99.90;;;;;;5053239;28;20045;-65
2022/03/07 02:00:24;;;;;;;12.73;3.17;;;24.50;99.90;;;;;;5046154;28;20025;-65
2022/03/07 02:02:56;;;;;;;15.10;3.13;;;24.90;99.90;;;;;;5033835;28;20045;-64
2022/03/07 02:05:27;;;;;;;15.80;2.70;;;24.90;99.90;;;;;;5049935;28;20085;-64
2022/03/07 02:07:59;;;;;;;13.77;2.88;;;24.90;99.90;;;;;;5049183;28;20096;-64
2022/03/07 02:10:29;;;;;;;20.27;3.30;;;24.90;99.90;;;;;;5049234;28;20038;-64
2022/03/07 02:12:56;;;;;;;15.75;3.00;;;24.90;99.90;;;;;;5047923;28;20048;-64
2022/03/07 02:15:24;;;;;;;18.95;3.67;;;24.90;99.90;;;;;;5051328;28;20045;-64
2022/03/07 02:17:51;;;;;;;12.82;3.40;;;24.90;99.90;;;;;;5051287;28;20113;-64
2022/03/07 02:20:18;;;;;;;19.60;3.70;;;24.90;99.90;;;;;;5049356;28;20052;-64
2022/03/07 02:22:46;;;;;;;12.57;3.08;;;24.90;99.90;;;;;;5051500;28;20034;-64
2022/03/07 02:25:13;;;;;;;16.20;4.07;;;25.00;99.90;;;;;;5050692;28;20088;-64
2022/03/07 02:27:40;;;;;;;21.13;4.22;;;25.10;99.90;;;;;;5050835;28;20036;-64
2022/03/07 02:30:09;;;;;;;17.80;4.18;;;25.10;99.90;;;;;;5037164;28;20045;-64
2022/03/07 02:32:36;;;;;;;17.63;3.80;;;24.90;99.90;;;;;;5043792;28;20034;-64
2022/03/07 02:35:06;;;;;;;19.15;3.63;;;24.90;99.90;;;;;;5049959;28;20093;-64
2022/03/07 02:37:33;;;;;;;22.08;4.00;;;24.90;99.90;;;;;;5044853;28;20041;-64
2022/03/07 02:40:00;;;;;;;19.98;3.10;;;25.00;99.90;;;;;;5052597;28;20044;-64
2022/03/07 02:42:28;;;;;;;12.82;2.55;;;25.20;99.90;;;;;;5051375;28;20029;-64
2022/03/07 02:44:55;;;;;;;15.07;2.90;;;25.20;99.90;;;;;;5049292;28;20033;-64
2022/03/07 02:47:23;;;;;;;14.45;3.30;;;25.30;99.90;;;;;;5052704;28;20041;-65
2022/03/07 02:49:51;;;;;;;17.92;2.92;;;25.40;99.90;;;;;;5046957;28;20037;-64
2022/03/07 02:52:18;;;;;;;13.40;2.55;;;25.40;99.90;;;;;;5041596;28;20030;-64
2022/03/07 02:54:45;;;;;;;11.60;2.30;;;25.40;99.90;;;;;;5041643;28;20053;-64
2022/03/07 02:57:13;;;;;;;11.23;2.15;;;25.50;99.90;;;;;;5056139;28;20026;-64
2022/03/07 02:59:40;;;;;;;12.82;2.90;;;25.50;99.90;;;;;;5058290;28;20040;-64
2022/03/07 03:02:07;;;;;;;9.88;1.65;;;25.70;99.90;;;;;;5036748;28;20037;-64
2022/03/07 03:04:35;;;;;;;9.15;1.80;;;25.70;99.90;;;;;;5056087;28;20057;-64
2022/03/07 03:07:02;;;;;;;14.52;2.50;;;25.80;99.90;;;;;;5046433;28;20024;-64
2022/03/07 03:09:29;;;;;;;10.57;2.20;;;26.00;99.90;;;;;;5047684;28;20617;-64
2022/03/07 03:11:56;;;;;;;13.18;2.25;;;26.30;99.90;;;;;;5031345;28;20064;-63
2022/03/07 03:14:24;;;;;;;9.88;2.05;;;26.50;99.90;;;;;;5048688;28;20033;-64
2022/03/07 03:16:51;;;;;;;10.82;2.80;;;26.50;99.90;;;;;;5039891;28;20048;-64
2022/03/07 03:19:20;;;;;;;13.00;2.35;;;25.90;99.90;;;;;;5032844;28;20033;-64
2022/03/07 03:21:47;;;;;;;10.82;1.80;;;25.40;99.90;;;;;;5048931;28;20036;-64
2022/03/07 03:24:14;;;;;;;11.90;2.38;;;25.20;99.90;;;;;;5051188;28;20093;-64
2022/03/07 03:26:42;;;;;;;12.52;2.58;;;25.10;99.90;;;;;;5047631;28;20034;-64
2022/03/07 03:29:09;;;;;;;14.48;2.13;;;25.10;99.90;;;;;;5048944;28;20038;-64
2022/03/07 03:31:36;;;;;;;14.98;2.75;;;25.30;99.90;;;;;;5042863;28;20045;-65
2022/03/07 03:34:04;;;;;;;15.02;2.05;;;25.50;99.90;;;;;;5048661;28;20033;-66
2022/03/07 03:36:32;;;;;;;11.27;1.50;;;25.50;99.90;;;;;;5045752;28;20029;-64
2022/03/07 03:38:59;;;;;;;11.95;1.55;;;25.50;99.90;;;;;;5047872;28;20017;-65
2022/03/07 03:41:26;;;;;;;17.17;2.75;;;25.40;99.90;;;;;;5051670;28;20037;-65
2022/03/07 03:43:54;;;;;;;22.23;2.63;;;25.40;99.90;;;;;;5057763;28;20040;-65
2022/03/07 03:46:21;;;;;;;13.57;2.03;;;25.40;99.90;;;;;;5051782;28;20043;-65
2022/03/07 03:48:48;;;;;;;14.88;2.03;;;25.40;99.90;;;;;;5051521;28;20046;-65
2022/03/07 03:51:15;;;;;;;13.27;2.85;;;25.30;99.90;;;;;;5047586;28;20041;-65
2022/03/07 03:53:43;;;;;;;17.17;2.20;;;25.40;99.90;;;;;;5056512;28;20025;-65
2022/03/07 03:56:10;;;;;;;15.30;2.15;;;25.60;99.90;;;;;;5044048;28;20044;-65
2022/03/07 03:58:37;;;;;;;10.07;2.10;;;25.90;99.90;;;;;;5038571;28;20048;-65
2022/03/07 04:01:05;;;;;;;20.58;2.63;;;25.90;99.90;;;;;;5045057;28;20476;-65
2022/03/07 04:03:32;;;;;;;19.48;2.80;;;25.90;99.90;;;;;;5051051;28;20026;-65
2022/03/07 04:06:00;;;;;;;13.45;2.30;;;25.90;99.90;;;;;;5036804;28;20064;-65
2022/03/07 04:08:27;;;;;;;17.70;2.67;;;25.90;99.90;;;;;;5042938;28;20042;-64
2022/03/07 04:10:54;;;;;;;13.18;2.40;;;26.10;99.90;;;;;;5036286;28;20457;-64
2022/03/07 04:13:22;;;;;;;16.10;2.25;;;26.20;99.90;;;;;;5041905;28;20041;-65
2022/03/07 04:15:49;;;;;;;16.45;2.33;;;26.10;99.90;;;;;;5049115;28;20025;-64
2022/03/07 04:18:16;;;;;;;10.82;3.05;;;26.10;99.90;;;;;;5022483;28;20033;-64
2022/03/07 04:20:44;;;;;;;17.67;2.40;;;26.20;99.90;;;;;;5033696;28;20037;-64
2022/03/07 04:23:11;;;;;;;9.13;1.80;;;26.10;99.90;;;;;;5052249;28;20018;-64
2022/03/07 04:25:39;;;;;;;19.45;2.95;;;26.20;99.90;;;;;;5041493;28;20026;-64
2022/03/07 04:28:06;;;;;;;14.30;2.45;;;26.30;99.90;;;;;;5036900;28;20070;-64
2022/03/07 04:30:33;;;;;;;14.90;2.50;;;26.40;99.90;;;;;;5026124;28;20026;-64
2022/03/07 04:33:00;;;;;;;9.18;1.48;;;26.60;99.90;;;;;;5051228;28;20040;-64
2022/03/07 04:35:28;;;;;;;11.23;1.95;;;26.60;99.90;;;;;;5054950;28;20097;-65
2022/03/07 04:37:55;;;;;;;11.30;2.38;;;26.50;99.90;;;;;;5054877;28;20025;-64
2022/03/07 04:40:22;;;;;;;10.63;2.03;;;26.20;99.90;;;;;;5048168;28;20030;-64
2022/03/07 04:42:50;;;;;;;11.23;1.80;;;26.20;99.90;;;;;;5048846;28;20063;-64
2022/03/07 04:45:18;;;;;;;10.07;1.90;;;26.10;99.90;;;;;;5038359;28;20033;-64
2022/03/07 04:47:45;;;;;;;10.57;2.60;;;26.10;99.90;;;;;;5044884;28;20081;-64
2022/03/07 04:50:13;;;;;;;23.48;3.60;;;26.10;99.90;;;;;;5049797;28;20081;-64
2022/03/07 04:52:41;;;;;;;14.40;2.80;;;26.10;99.90;;;;;;5051739;28;20450;-64
2022/03/07 04:55:12;;;;;;;15.52;2.80;;;26.00;99.90;;;;;;5032465;28;20159;-64
2022/03/07 04:57:43;;;;;;;14.05;2.63;;;25.80;99.90;;;;;;5020632;28;20122;-64
2022/03/07 05:00:12;;;;;;;12.93;2.28;;;25.70;99.90;;;;;;5041232;28;20022;-64
2022/03/07 05:02:39;;;;;;;11.40;1.90;;;25.60;99.90;;;;;;5043553;28;20062;-63
2022/03/07 05:05:07;;;;;;;12.93;2.67;;;25.60;99.90;;;;;;5047431;28;20034;-64
2022/03/07 05:07:34;;;;;;;13.93;2.53;;;25.60;99.90;;;;;;5045192;28;20048;-64
2022/03/07 05:10:02;;;;;;;20.35;2.20;;;25.60;99.90;;;;;;5051587;28;20085;-64
2022/03/07 05:12:29;;;;;;;15.63;2.88;;;25.60;99.90;;;;;;5056845;28;20030;-64
2022/03/07 05:14:58;;;;;;;18.33;2.30;;;25.60;99.90;;;;;;5045942;28;20034;-64
2022/03/07 05:17:25;;;;;;;16.23;1.88;;;25.70;99.90;;;;;;5050292;28;20101;-63
2022/03/07 05:19:52;;;;;;;17.38;3.40;;;25.70;99.90;;;;;;5054864;28;20052;-63
2022/03/07 05:22:20;;;;;;;10.65;2.17;;;25.60;99.90;;;;;;5056574;28;20035;-64
2022/03/07 05:24:47;;;;;;;14.20;1.42;;;25.40;99.90;;;;;;5057535;28;20030;-64
2022/03/07 05:27:14;;;;;;;18.90;4.50;;;25.40;99.90;;;;;;5026720;28;20034;-64
2022/03/07 05:29:42;;;;;;;10.55;2.20;;;25.40;99.90;;;;;;5038819;28;20109;-64
2022/03/07 05:32:09;;;;;;;11.10;2.13;;;25.40;99.90;;;;;;5053133;28;20037;-64
2022/03/07 05:34:36;;;;;;;14.10;2.25;;;25.40;99.90;;;;;;5054675;28;20076;-63
2022/03/07 05:37:03;;;;;;;16.73;2.90;;;25.30;99.90;;;;;;5051732;28;20021;-64
2022/03/07 05:39:31;;;;;;;16.48;3.03;;;25.40;99.90;;;;;;5055120;28;20037;-64
2022/03/07 05:41:58;;;;;;;16.30;2.80;;;25.40;99.90;;;;;;5050557;28;20037;-65
2022/03/07 05:44:25;;;;;;;16.63;3.80;;;25.30;99.90;;;;;;5032636;28;20029;-64
2022/03/07 05:46:53;;;;;;;16.98;2.47;;;25.20;99.90;;;;;;5044073;28;20021;-63
2022/03/07 05:49:20;;;;;;;16.30;3.10;;;25.20;99.90;;;;;;5056474;28;20032;-63
2022/03/07 05:51:47;;;;;;;19.23;3.45;;;25.20;99.90;;;;;;5050983;28;20081;-64
2022/03/07 05:54:15;;;;;;;23.85;3.05;;;25.20;99.90;;;;;;5046484;28;20038;-64
2022/03/07 05:56:42;;;;;;;20.58;3.75;;;25.10;99.90;;;;;;5047996;28;20093;-63
2022/03/07 05:59:09;;;;;;;22.90;3.67;;;25.00;99.90;;;;;;5045312;28;20032;-63
2022/03/07 06:01:37;;;;;;;22.15;3.97;;;24.90;99.90;;;;;;5043703;28;20044;-63
2022/03/07 06:04:04;;;;;;;26.92;4.15;;;24.90;99.90;;;;;;5041281;28;20108;-63
2022/03/07 06:06:32;;;;;;;22.48;3.75;;;24.70;99.90;;;;;;5048316;28;20029;-63
2022/03/07 06:08:59;;;;;;;25.27;4.22;;;24.60;99.90;;;;;;5053271;28;20041;-63
2022/03/07 06:11:26;;;;;;;27.85;5.00;;;24.60;99.90;;;;;;5046284;28;20118;-65
2022/03/07 06:13:53;;;;;;;24.73;3.28;;;24.50;99.90;;;;;;5038919;28;20038;-63
2022/03/07 06:16:21;;;;;;;22.42;3.92;;;24.50;99.90;;;;;;5047124;28;20029;-64
2022/03/07 06:18:48;;;;;;;26.45;4.25;;;24.40;99.90;;;;;;5040588;28;20026;-66
2022/03/07 06:21:15;;;;;;;28.58;3.60;;;24.40;99.90;;;;;;5039236;28;20085;-64
2022/03/07 06:23:43;;;;;;;23.60;3.60;;;24.40;99.90;;;;;;5045918;28;20093;-63
2022/03/07 06:26:10;;;;;;;20.88;3.88;;;24.40;99.90;;;;;;5045034;28;20049;-63
2022/03/07 06:28:37;;;;;;;25.55;4.38;;;24.40;99.90;;;;;;5052723;28;20108;-63
2022/03/07 06:31:04;;;;;;;20.25;3.25;;;24.40;99.90;;;;;;5047294;28;20120;-64
2022/03/07 06:33:32;;;;;;;25.38;5.07;;;24.40;99.90;;;;;;5033600;28;20036;-64
2022/03/07 06:35:59;;;;;;;24.30;4.80;;;24.30;99.90;;;;;;5037202;28;20044;-64
2022/03/07 06:38:26;;;;;;;30.25;4.20;;;24.30;99.90;;;;;;5026310;28;20033;-64
2022/03/07 06:40:54;;;;;;;21.90;4.13;;;24.30;99.90;;;;;;5045792;28;20033;-64
2022/03/07 06:43:21;;;;;;;29.42;3.60;;;24.20;99.90;;;;;;5046182;28;20034;-64
2022/03/07 06:45:48;;;;;;;23.92;4.00;;;24.20;99.90;;;;;;5046331;28;20029;-63
2022/03/07 06:48:16;;;;;;;16.20;3.60;;;24.20;99.90;;;;;;5037846;28;20041;-63
2022/03/07 06:50:43;;;;;;;23.05;3.58;;;24.10;99.90;;;;;;5045509;28;20052;-64
2022/03/07 06:53:11;;;;;;;25.85;4.85;;;24.00;99.90;;;;;;5044261;28;20022;-64
2022/03/07 06:55:38;;;;;;;24.80;4.47;;;23.90;99.90;;;;;;5046190;28;20049;-64
2022/03/07 06:58:05;;;;;;;26.63;5.28;;;23.80;99.90;;;;;;5049268;28;20101;-64
2022/03/07 07:00:33;;;;;;;24.92;4.30;;;23.70;99.90;;;;;;5039562;28;20033;-63
2022/03/07 07:03:00;;;;;;;17.80;3.65;;;23.70;99.90;;;;;;5053771;28;20021;-64
2022/03/07 07:05:28;;;;;;;23.00;4.50;;;23.60;99.90;;;;;;5047407;28;20033;-65
2022/03/07 07:07:56;;;;;;;23.58;5.28;;;23.60;99.90;;;;;;5049253;28;20045;-65
2022/03/07 07:10:24;;;;;;;24.95;4.45;;;23.50;99.90;;;;;;5044354;28;20034;-64
2022/03/07 07:12:51;;;;;;;25.40;5.35;;;23.50;99.90;;;;;;5040098;28;20018;-64
2022/03/07 07:15:19;;;;;;;17.38;4.13;;;23.50;99.90;;;;;;5043428;28;20040;-65
2022/03/07 07:17:47;;;;;;;13.55;3.13;;;23.50;99.90;;;;;;5044453;28;20034;-65
2022/03/07 07:20:14;;;;;;;14.10;2.08;;;23.30;99.90;;;;;;5040440;28;20686;-65
2022/03/07 07:22:42;;;;;;;13.38;2.42;;;23.10;99.90;;;;;;5015507;28;20038;-66
2022/03/07 07:25:10;;;;;;;20.65;2.50;;;23.10;99.90;;;;;;5030188;28;20034;-66
2022/03/07 07:27:39;;;;;;;16.42;3.30;;;23.10;99.90;;;;;;5034593;28;20060;-66
2022/03/07 07:30:09;;;;;;;16.48;3.13;;;23.10;99.90;;;;;;5045198;28;20030;-66
2022/03/07 07:32:38;;;;;;;16.85;2.65;;;23.00;99.90;;;;;;5046675;28;20034;-66
2022/03/07 07:35:08;;;;;;;7.65;1.63;;;22.90;99.90;;;;;;5048542;28;20442;-65
2022/03/07 07:37:35;;;;;;;7.85;1.90;;;22.90;99.90;;;;;;5034933;28;20097;-66
2022/03/07 07:40:05;;;;;;;8.05;2.60;;;22.90;99.90;;;;;;5032381;28;20061;-65
2022/03/07 07:42:32;;;;;;;12.48;2.47;;;22.90;99.90;;;;;;5031270;28;20041;-65
2022/03/07 07:45:00;;;;;;;14.05;3.15;;;23.10;99.90;;;;;;5042261;28;20030;-66
2022/03/07 07:47:27;;;;;;;16.35;2.88;;;23.10;99.90;;;;;;5040372;28;20040;-66
2022/03/07 07:49:54;;;;;;;16.77;3.63;;;23.20;99.90;;;;;;5053646;28;20037;-65
2022/03/07 07:52:21;;;;;;;12.18;2.63;;;23.10;99.90;;;;;;5048255;28;20095;-65
2022/03/07 07:54:48;;;;;;;10.38;2.50;;;23.20;99.90;;;;;;5051982;28;20048;-65
2022/03/07 07:57:16;;;;;;;12.57;2.90;;;23.20;99.90;;;;;;5049343;28;20107;-66
2022/03/07 07:59:43;;;;;;;18.05;3.00;;;23.20;99.90;;;;;;5051109;28;20038;-66
2022/03/07 08:02:10;;;;;;;15.75;3.03;;;23.30;99.90;;;;;;5049253;28;20091;-66
2022/03/07 08:04:38;;;;;;;18.25;3.20;;;23.30;99.90;;;;;;5050562;28;20026;-66
2022/03/07 08:07:05;;;;;;;13.93;3.05;;;23.30;99.90;;;;;;5045689;28;20026;-65
2022/03/07 08:09:34;;;;;;;16.75;3.60;;;23.30;99.90;;;;;;5048841;28;20053;-65
2022/03/07 08:12:02;;;;;;;18.38;3.28;;;23.20;99.90;;;;;;5034140;28;20038;-66
2022/03/07 08:14:30;;;;;;;14.38;2.53;;;23.10;99.90;;;;;;5047681;28;20508;-66
2022/03/07 08:16:57;;;;;;;14.50;3.00;;;23.10;99.90;;;;;;5045428;28;20033;-66
2022/03/07 08:19:24;;;;;;;11.77;2.85;;;23.20;99.90;;;;;;5042071;28;20389;-66
2022/03/07 08:21:52;;;;;;;18.27;3.63;;;23.10;99.90;;;;;;5042910;28;20042;-66
2022/03/07 08:24:19;;;;;;;13.60;2.88;;;23.10;99.90;;;;;;5018588;28;20034;-65
2022/03/07 08:26:47;;;;;;;7.63;2.55;;;23.10;99.90;;;;;;5041886;28;20033;-66
2022/03/07 08:29:14;;;;;;;10.48;2.53;;;23.00;99.90;;;;;;5048312;28;20061;-66
2022/03/07 08:31:41;;;;;;;10.73;2.45;;;22.90;99.90;;;;;;5047619;28;20041;-66
2022/03/07 08:34:08;;;;;;;12.25;2.95;;;22.90;99.90;;;;;;5038347;28;20033;-66
2022/03/07 08:36:36;;;;;;;14.90;3.10;;;23.00;99.90;;;;;;5041644;28;20581;-66
2022/03/07 08:39:04;;;;;;;14.02;2.47;;;23.00;99.90;;;;;;5035183;28;20037;-66
2022/03/07 08:41:31;;;;;;;15.55;3.45;;;23.10;99.90;;;;;;5039451;28;20397;-65
2022/03/07 08:43:58;;;;;;;10.73;2.35;;;23.10;99.90;;;;;;5024508;28;20030;-66
2022/03/07 08:46:26;;;;;;;17.25;3.25;;;23.10;99.90;;;;;;5034086;28;20354;-66
2022/03/07 08:48:53;;;;;;;20.05;4.60;;;23.20;99.90;;;;;;5034613;28;20042;-66
2022/03/07 08:51:20;;;;;;;12.25;3.33;;;23.10;99.90;;;;;;5034972;28;20378;-66
2022/03/07 08:53:48;;;;;;;13.02;2.88;;;23.00;99.90;;;;;;5036990;28;20064;-66
2022/03/07 08:56:15;;;;;;;19.77;5.30;;;23.00;99.90;;;;;;5038527;28;20033;-66
2022/03/07 08:58:42;;;;;;;10.48;2.60;;;22.90;99.90;;;;;;5039433;28;20061;-66
2022/03/07 09:01:10;;;;;;;16.33;2.75;;;22.80;99.90;;;;;;5039877;28;20120;-66
2022/03/07 09:03:37;;;;;;;9.18;2.63;;;22.90;99.90;;;;;;5038205;28;20061;-66
2022/03/07 09:06:05;;;;;;;14.38;3.65;;;22.90;99.90;;;;;;5036826;28;20030;-66
2022/03/07 09:08:32;;;;;;;7.35;2.00;;;22.90;99.90;;;;;;5042568;28;20041;-66
2022/03/07 09:10:59;;;;;;;9.60;2.30;;;22.80;99.90;;;;;;5041510;28;20037;-66
2022/03/07 09:13:27;;;;;;;9.90;3.25;;;22.80;99.90;;;;;;5041316;28;20030;-66
2022/03/07 09:15:55;;;;;;;9.48;2.38;;;22.80;99.90;;;;;;5040038;28;20042;-66
2022/03/07 09:18:25;;;;;;;9.25;2.75;;;22.80;99.90;;;;;;5041365;28;20152;-65
2022/03/07 09:20:54;;;;;;;15.93;3.72;;;22.70;99.90;;;;;;5039131;28;20160;-66
2022/03/07 09:23:22;;;;;;;7.68;2.30;;;22.70;99.90;;;;;;5021318;28;20045;-66
2022/03/07 09:25:49;;;;;;;8.88;2.22;;;22.70;99.90;;;;;;5039455;28;20485;-66
2022/03/07 09:28:16;;;;;;;6.47;1.80;;;22.70;99.90;;;;;;5040016;28;20041;-66
2022/03/07 09:30:44;;;;;;;9.20;2.53;;;22.70;99.90;;;;;;5029868;28;20121;-66
2022/03/07 09:33:11;;;;;;;9.10;2.22;;;22.70;99.90;;;;;;5025607;28;20060;-66
2022/03/07 09:35:38;;;;;;;9.10;2.20;;;22.60;99.90;;;;;;5032095;28;20029;-66
2022/03/07 09:38:05;;;;;;;10.55;2.22;;;22.60;99.90;;;;;;5038328;28;20497;-66
2022/03/07 09:40:33;;;;;;;6.63;1.95;;;22.60;99.90;;;;;;5039719;28;20038;-66
2022/03/07 09:43:00;;;;;;;6.43;1.50;;;22.60;99.90;;;;;;5030818;28;20171;-66
2022/03/07 09:45:27;;;;;;;4.65;2.10;;;22.60;99.90;;;;;;5039314;28;20104;-66
2022/03/07 09:47:57;;;;;;;7.15;1.77;;;22.60;99.90;;;;;;5038759;28;20041;-66
2022/03/07 09:50:24;;;;;;;8.43;2.28;;;22.50;99.90;;;;;;5036004;28;20038;-65
2022/03/07 09:52:54;;;;;;;3.83;1.20;;;22.50;99.90;;;;;;5039442;28;20064;-66
2022/03/07 09:55:22;;;;;;;1.98;0.85;;;22.50;99.90;;;;;;5044282;28;20042;-65
2022/03/07 09:57:50;;;;;;;5.65;1.40;;;22.50;99.90;;;;;;5020643;28;20044;-65
2022/03/07 10:00:19;;;;;;;6.68;1.27;;;22.50;99.90;;;;;;5021408;28;20059;-65
2022/03/07 10:02:59;;;;;;;6.63;1.35;;;22.50;99.90;;;;;;5039146;28;20025;-66
2022/03/07 10:05:28;;;;;;;4.57;1.58;;;22.50;99.90;;;;;;5040812;28;20051;-65
2022/03/07 10:07:56;;;;;;;6.43;1.55;;;22.50;99.90;;;;;;5036736;28;20045;-65
2022/03/07 10:10:32;;;;;;;4.10;1.55;;;22.50;99.90;;;;;;5036032;28;20029;-65
2022/03/07 10:13:14;;;;;;;4.07;1.33;;;22.50;99.90;;;;;;5021525;28;20060;-65
2022/03/07 10:15:42;;;;;;;5.55;1.58;;;22.50;99.90;;;;;;5022298;28;20472;-65
2022/03/07 10:18:29;;;;;;;7.82;1.75;;;22.50;99.90;;;;;;5031861;28;20080;-65
2022/03/07 10:21:01;;;;;;;10.85;1.52;;;22.50;99.90;;;;;;5031216;28;20048;-65
2022/03/07 10:23:29;;;;;;;4.72;2.05;;;22.50;99.90;;;;;;5035312;28;20493;-65
2022/03/07 10:26:12;;;;;;;4.90;1.52;;;22.50;99.90;;;;;;5001880;28;20030;-66
2022/03/07 10:28:41;;;;;;;4.03;1.08;;;22.50;99.90;;;;;;5013035;28;20037;-65
2022/03/07 10:31:16;;;;;;;4.40;1.33;;;22.50;99.90;;;;;;5032439;28;20036;-65
2022/03/07 10:33:44;;;;;;;4.03;1.00;;;22.40;99.90;;;;;;5031707;28;20030;-65
2022/03/07 10:36:12;;;;;;;6.20;1.20;;;22.40;99.90;;;;;;5031599;28;20042;-65
2022/03/07 10:38:39;;;;;;;2.92;1.38;;;22.50;99.90;;;;;;5037481;28;20033;-66
2022/03/07 10:41:07;;;;;;;6.13;1.80;;;22.50;99.90;;;;;;5030556;28;20049;-66
2022/03/07 10:43:45;;;;;;;4.20;1.65;;;22.50;99.90;;;;;;5024890;28;20063;-66
2022/03/07 10:46:12;;;;;;;8.60;2.45;;;22.50;99.90;;;;;;5029109;28;20115;-68
2022/03/07 10:48:43;;;;;;;4.55;1.45;;;22.50;99.90;;;;;;5019325;28;20104;-68
2022/03/07 10:51:20;;;;;;;7.70;1.65;;;22.50;99.90;;;;;;5010165;28;20580;-68
2022/03/07 10:53:48;;;;;;;4.50;1.52;;;22.50;99.90;;;;;;5008876;28;20033;-68
2022/03/07 10:56:17;;;;;;;7.43;1.45;;;22.50;99.90;;;;;;5021919;28;20091;-68
2022/03/07 10:59:11;;;;;;;7.13;2.22;;;22.50;99.90;;;;;;5022280;28;20968;-68
2022/03/07 11:01:38;;;;;;;3.72;1.83;;;22.50;99.90;;;;;;5004526;28;20034;-68
2022/03/07 11:04:05;;;;;;;3.85;1.23;;;22.50;99.90;;;;;;5014597;28;20585;-68
2022/03/07 11:06:32;;;;;;;3.70;1.63;;;22.50;99.90;;;;;;5014727;28;20034;-69
2022/03/07 11:09:00;;;;;;;4.32;1.50;;;22.60;99.90;;;;;;5013960;28;20554;-69
2022/03/07 11:11:27;;;;;;;3.45;1.52;;;22.50;99.90;;;;;;5013306;28;20401;-69
2022/03/07 11:13:56;;;;;;;4.10;1.45;;;22.60;99.90;;;;;;5015898;28;20049;-69
2022/03/07 11:16:24;;;;;;;3.40;1.50;;;22.50;99.90;;;;;;5006672;28;20053;-70
2022/03/07 11:18:54;;;;;;;2.22;1.27;;;22.50;99.90;;;;;;5018354;28;20037;-69
2022/03/07 11:21:22;;;;;;;5.53;2.15;;;22.40;99.90;;;;;;5033142;28;20120;-69
2022/03/07 11:23:50;;;;;;;5.07;1.30;;;22.40;99.90;;;;;;5026050;28;20153;-69
2022/03/07 11:26:20;;;;;;;4.47;1.38;;;22.50;99.90;;;;;;5008878;28;20084;-69
2022/03/07 11:28:51;;;;;;;3.33;0.60;;;22.50;99.90;;;;;;5035218;28;20029;-69
2022/03/07 11:31:32;;;;;;;2.50;0.75;;;22.30;99.90;;;;;;5026122;28;20034;-70
2022/03/07 11:34:05;;;;;;;2.78;0.98;;;22.30;99.90;;;;;;5017890;28;21133;-68
2022/03/07 11:36:32;;;;;;;4.60;1.00;;;22.30;99.90;;;;;;5003159;28;20111;-69
2022/03/07 11:39:02;;;;;;;4.88;0.95;;;22.30;99.90;;;;;;5017493;28;20040;-68
2022/03/07 11:41:33;;;;;;;4.18;0.90;;;22.20;99.90;;;;;;5021631;28;20116;-68
2022/03/07 11:44:07;;;;;;;3.55;1.10;;;22.30;99.90;;;;;;5035702;28;20397;-69
2022/03/07 11:46:41;;;;;;;5.85;1.00;;;22.20;99.90;;;;;;5025399;28;20054;-69
2022/03/07 11:49:11;;;;;;;2.80;0.93;;;22.20;99.90;;;;;;5032430;28;20038;-69
2022/03/07 11:51:41;;;;;;;3.20;1.08;;;22.20;99.90;;;;;;5029780;28;20057;-69
2022/03/07 11:54:21;;;;;;;3.83;1.20;;;22.10;99.90;;;;;;5033011;28;20034;-69
2022/03/07 11:56:48;;;;;;;4.43;1.20;;;22.20;99.90;;;;;;5032780;28;20033;-69
2022/03/07 11:59:16;;;;;;;5.40;1.48;;;22.30;99.90;;;;;;5031438;28;20041;-69
2022/03/07 12:01:54;;;;;;;1.67;1.10;;;22.20;99.90;;;;;;5019904;28;20037;-69
2022/03/07 12:04:24;;;;;;;4.65;1.58;;;22.30;99.90;;;;;;5033170;28;20032;-69
2022/03/07 12:06:53;;;;;;;7.72;1.25;;;22.30;99.90;;;;;;5023550;28;20548;-69
2022/03/07 12:09:32;;;;;;;12.40;2.13;;;22.20;99.90;;;;;;5028472;28;20133;-69
2022/03/07 12:12:03;;;;;;;11.07;1.98;;;22.10;99.90;;;;;;5029293;28;20034;-69
2022/03/07 12:14:32;;;;;;;13.70;2.78;;;22.10;99.90;;;;;;5023182;28;20559;-68
2022/03/07 12:17:01;;;;;;;12.57;2.17;;;22.00;99.90;;;;;;5034017;28;20385;-68
2022/03/07 12:19:29;;;;;;;7.35;1.83;;;21.90;99.90;;;;;;5029873;28;20030;-68
2022/03/07 12:21:57;;;;;;;11.70;2.15;;;21.90;99.90;;;;;;5024740;28;20060;-68
2022/03/07 12:24:24;;;;;;;9.55;2.42;;;21.80;99.90;;;;;;5032949;28;20037;-68
2022/03/07 12:26:56;;;;;;;10.05;2.25;;;21.80;99.90;;;;;;5031487;28;20178;-68
2022/03/07 12:29:26;;;;;;;9.93;2.42;;;21.70;99.90;;;;;;5031968;28;20033;-68
2022/03/07 12:31:56;;;;;;;8.40;1.60;;;21.70;99.90;;;;;;5030327;28;20037;-68
2022/03/07 12:34:26;;;;;;;7.65;1.77;;;21.70;99.90;;;;;;5034811;28;20517;-68
2022/03/07 12:37:20;;;;;;;10.55;2.40;;;21.90;99.90;;;;;;5023681;28;20116;-68
2022/03/07 12:39:52;;;;;;;12.52;2.08;;;21.90;99.90;;;;;;5016955;28;20057;-68
2022/03/07 12:42:25;;;;;;;14.77;2.78;;;21.90;99.90;;;;;;5027136;28;20038;-68
2022/03/07 12:44:53;;;;;;;8.48;2.13;;;21.90;99.90;;;;;;5034473;28;20026;-68
2022/03/07 12:47:28;;;;;;;8.77;2.22;;;21.90;99.90;;;;;;5030579;28;20034;-68